Hakuhomaru — JJ4011 — position and weather

sailwx.info

Track history (hours):
 
Tides and Currents Weather Stations Pressure Air Temp Water Temp Dewpoint Dewpoint Depression Visibility Wind Speed Wind Dir Waves Ship Positions

Hakuhomaru

Last reported at 2014-Nov-23 23:33 UTC. Time now 2014-Nov-24 00:11 UTC.
Position N 34°41' E 135°12'.

Length 38 m; draft 3.3 m.

Type: Tug. MMSI: 431401584.

Date/timePositionNaut miles runAvg speedWind from/ knotsBaromVisibWave heightAir tempDewpointWater temp
2014-Nov-23 23:33N 34°41' E 135°12'0 0.3
2014-Nov-23 22:33N 34°41' E 135°12'0 0.0
2014-Nov-23 06:25N 34°41' E 135°12'8 9.3
2014-Nov-23 05:33N 34°37' E 135°21'1 1.3
2014-Nov-23 04:32N 34°36' E 135°22'8 7.8
2014-Nov-23 03:33N 34°41' E 135°15'2 2.0
2014-Nov-23 02:31N 34°41' E 135°12'0 0.0
2014-Nov-23 01:33N 34°41' E 135°12'0 0.0
2014-Nov-23 00:33N 34°41' E 135°12'0 0.0
2014-Nov-22 23:33N 34°41' E 135°12'0 0.0
2014-Nov-22 22:33N 34°41' E 135°12'0 0.0
2014-Nov-22 19:09N 34°41' E 135°12'2 3.0
2014-Nov-22 18:34N 34°40' E 135°14'2 1.8
2014-Nov-22 17:34N 34°41' E 135°12'0 0.0
2014-Nov-22 16:33N 34°41' E 135°12'0 0.0
2014-Nov-22 15:34N 34°41' E 135°12'0 0.0
2014-Nov-22 14:34N 34°41' E 135°12'0 0.0
2014-Nov-22 13:33N 34°41' E 135°12'0 0.0
2014-Nov-22 12:34N 34°41' E 135°12'0 0.0
2014-Nov-22 11:34N 34°41' E 135°12'1 1.4
2014-Nov-22 10:34N 34°41' E 135°14'1 1.3
2014-Nov-22 09:33N 34°42' E 135°15'0 0.4
2014-Nov-22 08:34N 34°42' E 135°15'0 0.0
2014-Nov-22 07:34N 34°42' E 135°15'1 1.0
2014-Nov-22 06:33N 34°41' E 135°16'2 2.4
2014-Nov-22 05:33N 34°41' E 135°13'0 0.0
2014-Nov-22 04:33N 34°41' E 135°13'2 1.8
2014-Nov-22 03:33N 34°40' E 135°14'1 0.9
2014-Nov-22 02:33N 34°39' E 135°15'0 0.0
2014-Nov-22 01:33N 34°39' E 135°15'0 0.0
2014-Nov-22 00:32N 34°39' E 135°15'0 0.0
2014-Nov-21 23:33N 34°39' E 135°15'0 0.3
2014-Nov-21 22:33N 34°39' E 135°15'3 2.7
2014-Nov-21 21:33N 34°40' E 135°12'1 0.6
2014-Nov-21 20:33N 34°41' E 135°12'0 0.0
2014-Nov-21 06:33N 34°41' E 135°12'0 0.0
2014-Nov-21 05:33N 34°41' E 135°12'0 0.0
2014-Nov-21 04:33N 34°41' E 135°12'0 0.0
2014-Nov-21 03:33N 34°41' E 135°12'2 2.4
2014-Nov-21 02:33N 34°42' E 135°15'1 1.4
2014-Nov-21 01:34N 34°41' E 135°15'2 1.5
2014-Nov-21 00:33N 34°39' E 135°15'0 0.0
2014-Nov-20 23:33N 34°39' E 135°15'1 0.9
2014-Nov-20 22:33N 34°40' E 135°14'1 1.3
2014-Nov-20 21:34N 34°39' E 135°12'1 1.3
2014-Nov-20 20:33N 34°41' E 135°12'0 0.0
2014-Nov-20 06:33N 34°41' E 135°12'1 1.0
2014-Nov-20 05:33N 34°41' E 135°13'3 2.5
2014-Nov-20 04:33N 34°39' E 135°14'3 2.5
2014-Nov-20 03:33N 34°41' E 135°12'0 0.0
2014-Nov-20 02:33N 34°41' E 135°12'0 0.0
2014-Nov-20 01:33N 34°41' E 135°12'0 0.0
2014-Nov-20 00:33N 34°41' E 135°12'0 0.0
2014-Nov-19 23:33N 34°41' E 135°12'2 2.3
2014-Nov-19 22:33N 34°39' E 135°15'1 0.7
2014-Nov-19 21:33N 34°40' E 135°15'2 2.4
2014-Nov-19 20:33N 34°41' E 135°12'0 0.0
2014-Nov-19 11:15N 34°41' E 135°12'2 3.3
2014-Nov-19 10:33N 34°39' E 135°15'0 0.4
2014-Nov-19 09:33N 34°39' E 135°15'0 0.0
2014-Nov-19 08:33N 34°39' E 135°15'3 3.3
2014-Nov-19 07:33N 34°42' E 135°17'3 3.4
2014-Nov-19 06:32N 34°41' E 135°13'1 0.7
2014-Nov-19 05:33N 34°41' E 135°12'0 0.0
2014-Nov-19 04:33N 34°41' E 135°12'0 0.0
2014-Nov-19 03:33N 34°41' E 135°12'0 0.0
2014-Nov-19 02:33N 34°41' E 135°12'0 0.0
2014-Nov-19 01:33N 34°41' E 135°12'0 0.0
2014-Nov-19 00:33N 34°41' E 135°12'0 0.0
2014-Nov-18 23:33N 34°41' E 135°12'0 0.0
2014-Nov-18 22:33N 34°41' E 135°12'0 0.0
2014-Nov-17 21:33N 34°41' E 135°12'2 2.2
2014-Nov-17 20:33N 34°40' E 135°15'0 0.1
2014-Nov-17 19:33N 34°40' E 135°15'0 0.0
2014-Nov-17 18:33N 34°40' E 135°15'0 0.0
2014-Nov-17 17:33N 34°40' E 135°15'1 0.8
2014-Nov-17 16:33N 34°40' E 135°14'2 1.7
2014-Nov-17 15:33N 34°41' E 135°12'0 0.0
2014-Nov-17 14:33N 34°41' E 135°12'0 0.0
2014-Nov-17 13:33N 34°41' E 135°12'0 0.0
2014-Nov-17 12:33N 34°41' E 135°12'2 2.3
2014-Nov-17 11:33N 34°42' E 135°15'2 1.6
2014-Nov-17 10:33N 34°41' E 135°13'0 0.0
2014-Nov-17 09:33N 34°41' E 135°13'3 2.9
2014-Nov-17 08:32N 34°40' E 135°16'1 1.4
2014-Nov-17 07:33N 34°41' E 135°17'0 0.0
2014-Nov-17 06:33N 34°41' E 135°17'1 1.0
2014-Nov-17 05:33N 34°41' E 135°18'4 3.7
2014-Nov-17 04:33N 34°41' E 135°13'1 0.9
2014-Nov-17 03:33N 34°41' E 135°12'0 0.0
2014-Nov-17 02:33N 34°41' E 135°12'0 0.0
2014-Nov-17 01:33N 34°41' E 135°12'0 0.0
2014-Nov-17 00:33N 34°41' E 135°12'0 0.0
2014-Nov-16 23:33N 34°41' E 135°12'0 0.0
2014-Nov-16 04:34N 34°41' E 135°12'4 4.0
2014-Nov-16 03:34N 34°41' E 135°17'1 0.8
2014-Nov-16 02:33N 34°41' E 135°17'0 0.0
2014-Nov-16 01:33N 34°41' E 135°17'0 0.0
2014-Nov-16 00:33N 34°41' E 135°17'2 1.9
2014-Nov-15 23:34N 34°42' E 135°15'2 2.1
2014-Nov-15 22:33N 34°40' E 135°15'1 0.9
2014-Nov-15 21:33N 34°41' E 135°14'2 1.8
2014-Nov-15 20:33N 34°41' E 135°12'0 0.0
2014-Nov-15 10:06N 34°41' E 135°12'2 3.9
2014-Nov-15 09:33N 34°41' E 135°15'2 1.9
2014-Nov-15 08:33N 34°39' E 135°16'1 0.8
2014-Nov-15 07:34N 34°39' E 135°15'3 2.9
2014-Nov-15 06:33N 34°42' E 135°16'3 3.2
2014-Nov-15 05:33N 34°41' E 135°12'0 0.0
2014-Nov-15 04:33N 34°41' E 135°12'0 0.0
2014-Nov-15 03:33N 34°41' E 135°12'0 0.0
2014-Nov-15 02:33N 34°41' E 135°12'0 0.0
2014-Nov-15 01:33N 34°41' E 135°12'0 0.0
2014-Nov-15 00:33N 34°41' E 135°12'0 0.0
2014-Nov-14 23:33N 34°41' E 135°12'1 1.4
2014-Nov-14 22:33N 34°40' E 135°11'1 1.4
2014-Nov-14 21:33N 34°41' E 135°12'0 0.0
2014-Nov-14 20:34N 34°41' E 135°12'2 0.1
2014-Nov-14 08:33N 34°41' E 135°14'3 3.0
2014-Nov-14 07:33N 34°41' E 135°18'1 1.2
2014-Nov-14 06:33N 34°41' E 135°16'2 1.9
2014-Nov-14 05:33N 34°42' E 135°15'2 1.7
2014-Nov-14 04:33N 34°40' E 135°15'1 1.2
2014-Nov-14 03:33N 34°39' E 135°15'0 0.0
2014-Nov-14 02:33N 34°39' E 135°15'0 0.0
2014-Nov-14 01:33N 34°39' E 135°15'0 0.0
2014-Nov-14 00:33N 34°39' E 135°15'3 2.5
2014-Nov-13 23:33N 34°41' E 135°17'  
Track history (hours):
 
Tides and Currents Weather Stations Pressure Air Temp Water Temp Dewpoint Dewpoint Depression Visibility Wind Speed Wind Dir Waves Ship Positions

Hakuhomaru

Last reported at 2014-Nov-23 23:33 UTC. Time now 2014-Nov-24 00:11 UTC.
Position N 34°41' E 135°12'.

Length 38 m; draft 3.3 m.

Type: Tug. MMSI: 431401584.

Date/timePositionNaut miles runAvg speedWind from/ knotsBaromVisibWave heightAir tempDewpointWater temp
2014-Nov-23 23:33N 34°41' E 135°12'0 0.3
2014-Nov-23 22:33N 34°41' E 135°12'0 0.0
2014-Nov-23 06:25N 34°41' E 135°12'8 9.3
2014-Nov-23 05:33N 34°37' E 135°21'1 1.3
2014-Nov-23 04:32N 34°36' E 135°22'8 7.8
2014-Nov-23 03:33N 34°41' E 135°15'2 2.0
2014-Nov-23 02:31N 34°41' E 135°12'0 0.0
2014-Nov-23 01:33N 34°41' E 135°12'0 0.0
2014-Nov-23 00:33N 34°41' E 135°12'0 0.0
2014-Nov-22 23:33N 34°41' E 135°12'0 0.0
2014-Nov-22 22:33N 34°41' E 135°12'0 0.0
2014-Nov-22 19:09N 34°41' E 135°12'2 3.0
2014-Nov-22 18:34N 34°40' E 135°14'2 1.8
2014-Nov-22 17:34N 34°41' E 135°12'0 0.0
2014-Nov-22 16:33N 34°41' E 135°12'0 0.0
2014-Nov-22 15:34N 34°41' E 135°12'0 0.0
2014-Nov-22 14:34N 34°41' E 135°12'0 0.0
2014-Nov-22 13:33N 34°41' E 135°12'0 0.0
2014-Nov-22 12:34N 34°41' E 135°12'0 0.0
2014-Nov-22 11:34N 34°41' E 135°12'1 1.4
2014-Nov-22 10:34N 34°41' E 135°14'1 1.3
2014-Nov-22 09:33N 34°42' E 135°15'0 0.4
2014-Nov-22 08:34N 34°42' E 135°15'0 0.0
2014-Nov-22 07:34N 34°42' E 135°15'1 1.0
2014-Nov-22 06:33N 34°41' E 135°16'2 2.4
2014-Nov-22 05:33N 34°41' E 135°13'0 0.0
2014-Nov-22 04:33N 34°41' E 135°13'2 1.8
2014-Nov-22 03:33N 34°40' E 135°14'1 0.9
2014-Nov-22 02:33N 34°39' E 135°15'0 0.0
2014-Nov-22 01:33N 34°39' E 135°15'0 0.0
2014-Nov-22 00:32N 34°39' E 135°15'0 0.0
2014-Nov-21 23:33N 34°39' E 135°15'0 0.3
2014-Nov-21 22:33N 34°39' E 135°15'3 2.7
2014-Nov-21 21:33N 34°40' E 135°12'1 0.6
2014-Nov-21 20:33N 34°41' E 135°12'0 0.0
2014-Nov-21 06:33N 34°41' E 135°12'0 0.0
2014-Nov-21 05:33N 34°41' E 135°12'0 0.0
2014-Nov-21 04:33N 34°41' E 135°12'0 0.0
2014-Nov-21 03:33N 34°41' E 135°12'2 2.4
2014-Nov-21 02:33N 34°42' E 135°15'1 1.4
2014-Nov-21 01:34N 34°41' E 135°15'2 1.5
2014-Nov-21 00:33N 34°39' E 135°15'0 0.0
2014-Nov-20 23:33N 34°39' E 135°15'1 0.9
2014-Nov-20 22:33N 34°40' E 135°14'1 1.3
2014-Nov-20 21:34N 34°39' E 135°12'1 1.3
2014-Nov-20 20:33N 34°41' E 135°12'0 0.0
2014-Nov-20 06:33N 34°41' E 135°12'1 1.0
2014-Nov-20 05:33N 34°41' E 135°13'3 2.5
2014-Nov-20 04:33N 34°39' E 135°14'3 2.5
2014-Nov-20 03:33N 34°41' E 135°12'0 0.0
2014-Nov-20 02:33N 34°41' E 135°12'0 0.0
2014-Nov-20 01:33N 34°41' E 135°12'0 0.0
2014-Nov-20 00:33N 34°41' E 135°12'0 0.0
2014-Nov-19 23:33N 34°41' E 135°12'2 2.3
2014-Nov-19 22:33N 34°39' E 135°15'1 0.7
2014-Nov-19 21:33N 34°40' E 135°15'2 2.4
2014-Nov-19 20:33N 34°41' E 135°12'0 0.0
2014-Nov-19 11:15N 34°41' E 135°12'2 3.3
2014-Nov-19 10:33N 34°39' E 135°15'0 0.4
2014-Nov-19 09:33N 34°39' E 135°15'0 0.0
2014-Nov-19 08:33N 34°39' E 135°15'3 3.3
2014-Nov-19 07:33N 34°42' E 135°17'3 3.4
2014-Nov-19 06:32N 34°41' E 135°13'1 0.7
2014-Nov-19 05:33N 34°41' E 135°12'0 0.0
2014-Nov-19 04:33N 34°41' E 135°12'0 0.0
2014-Nov-19 03:33N 34°41' E 135°12'0 0.0
2014-Nov-19 02:33N 34°41' E 135°12'0 0.0
2014-Nov-19 01:33N 34°41' E 135°12'0 0.0
2014-Nov-19 00:33N 34°41' E 135°12'0 0.0
2014-Nov-18 23:33N 34°41' E 135°12'0 0.0
2014-Nov-18 22:33N 34°41' E 135°12'0 0.0
2014-Nov-17 21:33N 34°41' E 135°12'2 2.2
2014-Nov-17 20:33N 34°40' E 135°15'0 0.1
2014-Nov-17 19:33N 34°40' E 135°15'0 0.0
2014-Nov-17 18:33N 34°40' E 135°15'0 0.0
2014-Nov-17 17:33N 34°40' E 135°15'1 0.8
2014-Nov-17 16:33N 34°40' E 135°14'2 1.7
2014-Nov-17 15:33N 34°41' E 135°12'0 0.0
2014-Nov-17 14:33N 34°41' E 135°12'0 0.0
2014-Nov-17 13:33N 34°41' E 135°12'0 0.0
2014-Nov-17 12:33N 34°41' E 135°12'2 2.3
2014-Nov-17 11:33N 34°42' E 135°15'2 1.6
2014-Nov-17 10:33N 34°41' E 135°13'0 0.0
2014-Nov-17 09:33N 34°41' E 135°13'3 2.9
2014-Nov-17 08:32N 34°40' E 135°16'1 1.4
2014-Nov-17 07:33N 34°41' E 135°17'0 0.0
2014-Nov-17 06:33N 34°41' E 135°17'1 1.0
2014-Nov-17 05:33N 34°41' E 135°18'4 3.7
2014-Nov-17 04:33N 34°41' E 135°13'1 0.9
2014-Nov-17 03:33N 34°41' E 135°12'0 0.0
2014-Nov-17 02:33N 34°41' E 135°12'0 0.0
2014-Nov-17 01:33N 34°41' E 135°12'0 0.0
2014-Nov-17 00:33N 34°41' E 135°12'0 0.0
2014-Nov-16 23:33N 34°41' E 135°12'0 0.0
2014-Nov-16 04:34N 34°41' E 135°12'4 4.0
2014-Nov-16 03:34N 34°41' E 135°17'1 0.8
2014-Nov-16 02:33N 34°41' E 135°17'0 0.0
2014-Nov-16 01:33N 34°41' E 135°17'0 0.0
2014-Nov-16 00:33N 34°41' E 135°17'2 1.9
2014-Nov-15 23:34N 34°42' E 135°15'2 2.1
2014-Nov-15 22:33N 34°40' E 135°15'1 0.9
2014-Nov-15 21:33N 34°41' E 135°14'2 1.8
2014-Nov-15 20:33N 34°41' E 135°12'0 0.0
2014-Nov-15 10:06N 34°41' E 135°12'2 3.9
2014-Nov-15 09:33N 34°41' E 135°15'2 1.9
2014-Nov-15 08:33N 34°39' E 135°16'1 0.8
2014-Nov-15 07:34N 34°39' E 135°15'3 2.9
2014-Nov-15 06:33N 34°42' E 135°16'3 3.2
2014-Nov-15 05:33N 34°41' E 135°12'0 0.0
2014-Nov-15 04:33N 34°41' E 135°12'0 0.0
2014-Nov-15 03:33N 34°41' E 135°12'0 0.0
2014-Nov-15 02:33N 34°41' E 135°12'0 0.0
2014-Nov-15 01:33N 34°41' E 135°12'0 0.0
2014-Nov-15 00:33N 34°41' E 135°12'0 0.0
2014-Nov-14 23:33N 34°41' E 135°12'1 1.4
2014-Nov-14 22:33N 34°40' E 135°11'1 1.4
2014-Nov-14 21:33N 34°41' E 135°12'0 0.0
2014-Nov-14 20:34N 34°41' E 135°12'2 0.1
2014-Nov-14 08:33N 34°41' E 135°14'3 3.0
2014-Nov-14 07:33N 34°41' E 135°18'1 1.2
2014-Nov-14 06:33N 34°41' E 135°16'2 1.9
2014-Nov-14 05:33N 34°42' E 135°15'2 1.7
2014-Nov-14 04:33N 34°40' E 135°15'1 1.2
2014-Nov-14 03:33N 34°39' E 135°15'0 0.0
2014-Nov-14 02:33N 34°39' E 135°15'0 0.0
2014-Nov-14 01:33N 34°39' E 135°15'0 0.0
2014-Nov-14 00:33N 34°39' E 135°15'3 2.5
2014-Nov-13 23:33N 34°41' E 135°17'  

Dump ship's entire track history